sensor_id;sensor_type;location;lat;lon;timestamp;P1;durP1;ratioP1;P2;durP2;ratioP2
17670;SDS011;8954;48.694;8.940;2022-10-16T00:01:19;313.07;;;97.57;;
17670;SDS011;8954;48.694;8.940;2022-10-16T00:03:47;311.57;;;96.10;;
17670;SDS011;8954;48.694;8.940;2022-10-16T00:06:14;311.83;;;97.07;;
17670;SDS011;8954;48.694;8.940;2022-10-16T00:08:41;312.50;;;94.93;;
17670;SDS011;8954;48.694;8.940;2022-10-16T00:11:09;313.67;;;98.00;;
17670;SDS011;8954;48.694;8.940;2022-10-16T00:13:38;312.60;;;95.50;;
17670;SDS011;8954;48.694;8.940;2022-10-16T00:16:05;314.07;;;95.53;;
17670;SDS011;8954;48.694;8.940;2022-10-16T00:18:31;313.67;;;96.60;;
17670;SDS011;8954;48.694;8.940;2022-10-16T00:21:04;313.37;;;96.00;;
17670;SDS011;8954;48.694;8.940;2022-10-16T00:23:32;313.00;;;94.90;;
17670;SDS011;8954;48.694;8.940;2022-10-16T00:25:59;311.53;;;94.43;;
17670;SDS011;8954;48.694;8.940;2022-10-16T00:28:26;310.73;;;93.57;;
17670;SDS011;8954;48.694;8.940;2022-10-16T00:30:52;315.70;;;98.50;;
17670;SDS011;8954;48.694;8.940;2022-10-16T00:33:18;313.60;;;95.87;;
17670;SDS011;8954;48.694;8.940;2022-10-16T00:35:44;313.17;;;94.80;;
17670;SDS011;8954;48.694;8.940;2022-10-16T00:38:10;311.17;;;93.77;;
17670;SDS011;8954;48.694;8.940;2022-10-16T00:40:35;311.30;;;93.53;;
17670;SDS011;8954;48.694;8.940;2022-10-16T00:43:01;313.53;;;95.63;;
17670;SDS011;8954;48.694;8.940;2022-10-16T00:45:27;312.10;;;92.90;;
17670;SDS011;8954;48.694;8.940;2022-10-16T00:47:53;311.60;;;93.77;;
17670;SDS011;8954;48.694;8.940;2022-10-16T00:50:27;313.63;;;95.40;;
17670;SDS011;8954;48.694;8.940;2022-10-16T00:52:53;311.33;;;92.23;;
17670;SDS011;8954;48.694;8.940;2022-10-16T00:55:20;310.23;;;90.67;;
17670;SDS011;8954;48.694;8.940;2022-10-16T00:57:46;312.23;;;93.33;;
17670;SDS011;8954;48.694;8.940;2022-10-16T01:00:14;313.10;;;94.87;;
17670;SDS011;8954;48.694;8.940;2022-10-16T01:02:43;309.27;;;91.43;;
17670;SDS011;8954;48.694;8.940;2022-10-16T01:05:09;309.57;;;91.27;;
17670;SDS011;8954;48.694;8.940;2022-10-16T01:07:56;311.27;;;94.23;;
17670;SDS011;8954;48.694;8.940;2022-10-16T01:10:47;315.93;;;96.63;;
17670;SDS011;8954;48.694;8.940;2022-10-16T01:13:31;311.00;;;91.97;;
17670;SDS011;8954;48.694;8.940;2022-10-16T01:16:06;308.70;;;91.70;;
17670;SDS011;8954;48.694;8.940;2022-10-16T01:18:42;311.60;;;92.90;;
17670;SDS011;8954;48.694;8.940;2022-10-16T01:21:22;312.60;;;94.00;;
17670;SDS011;8954;48.694;8.940;2022-10-16T01:24:22;310.03;;;91.60;;
17670;SDS011;8954;48.694;8.940;2022-10-16T01:29:48;308.20;;;90.40;;
17670;SDS011;8954;48.694;8.940;2022-10-16T01:32:36;310.20;;;91.50;;
17670;SDS011;8954;48.694;8.940;2022-10-16T01:35:27;307.63;;;90.37;;
17670;SDS011;8954;48.694;8.940;2022-10-16T01:40:47;314.03;;;95.53;;
17670;SDS011;8954;48.694;8.940;2022-10-16T01:43:19;309.37;;;90.87;;
17670;SDS011;8954;48.694;8.940;2022-10-16T01:45:47;312.13;;;92.93;;
17670;SDS011;8954;48.694;8.940;2022-10-16T01:48:16;310.10;;;92.33;;
17670;SDS011;8954;48.694;8.940;2022-10-16T01:50:44;313.37;;;93.93;;
17670;SDS011;8954;48.694;8.940;2022-10-16T01:53:22;313.90;;;93.47;;
17670;SDS011;8954;48.694;8.940;2022-10-16T01:55:50;308.77;;;91.93;;
17670;SDS011;8954;48.694;8.940;2022-10-16T01:58:19;310.07;;;91.63;;
17670;SDS011;8954;48.694;8.940;2022-10-16T02:00:46;311.90;;;93.07;;
17670;SDS011;8954;48.694;8.940;2022-10-16T02:03:13;311.27;;;92.03;;
17670;SDS011;8954;48.694;8.940;2022-10-16T02:05:46;310.23;;;92.67;;
17670;SDS011;8954;48.694;8.940;2022-10-16T02:08:17;310.53;;;95.00;;
17670;SDS011;8954;48.694;8.940;2022-10-16T02:10:43;311.00;;;92.97;;
17670;SDS011;8954;48.694;8.940;2022-10-16T02:13:16;316.57;;;97.60;;
17670;SDS011;8954;48.694;8.940;2022-10-16T02:15:51;310.77;;;92.87;;
17670;SDS011;8954;48.694;8.940;2022-10-16T02:18:17;309.73;;;92.67;;
17670;SDS011;8954;48.694;8.940;2022-10-16T02:20:48;311.30;;;92.87;;
17670;SDS011;8954;48.694;8.940;2022-10-16T02:23:24;310.83;;;93.30;;
17670;SDS011;8954;48.694;8.940;2022-10-16T02:26:13;310.47;;;92.67;;
17670;SDS011;8954;48.694;8.940;2022-10-16T02:28:48;312.03;;;94.73;;
17670;SDS011;8954;48.694;8.940;2022-10-16T02:31:21;309.80;;;91.90;;
17670;SDS011;8954;48.694;8.940;2022-10-16T02:33:53;310.20;;;92.67;;
17670;SDS011;8954;48.694;8.940;2022-10-16T02:36:22;309.93;;;92.60;;
17670;SDS011;8954;48.694;8.940;2022-10-16T02:38:48;310.97;;;93.03;;
17670;SDS011;8954;48.694;8.940;2022-10-16T02:41:14;311.63;;;94.40;;
17670;SDS011;8954;48.694;8.940;2022-10-16T02:43:40;314.50;;;97.30;;
17670;SDS011;8954;48.694;8.940;2022-10-16T02:46:06;311.50;;;95.10;;
17670;SDS011;8954;48.694;8.940;2022-10-16T02:48:32;309.93;;;93.53;;
17670;SDS011;8954;48.694;8.940;2022-10-16T02:50:58;309.60;;;92.73;;
17670;SDS011;8954;48.694;8.940;2022-10-16T02:53:23;309.00;;;91.87;;
17670;SDS011;8954;48.694;8.940;2022-10-16T02:55:49;309.63;;;93.13;;
17670;SDS011;8954;48.694;8.940;2022-10-16T02:58:15;311.77;;;93.70;;
17670;SDS011;8954;48.694;8.940;2022-10-16T03:00:40;310.33;;;92.00;;
17670;SDS011;8954;48.694;8.940;2022-10-16T03:03:07;311.97;;;94.77;;
17670;SDS011;8954;48.694;8.940;2022-10-16T03:05:32;311.47;;;94.10;;
17670;SDS011;8954;48.694;8.940;2022-10-16T03:07:58;312.37;;;94.70;;
17670;SDS011;8954;48.694;8.940;2022-10-16T03:10:25;317.07;;;98.73;;
17670;SDS011;8954;48.694;8.940;2022-10-16T03:12:51;308.07;;;90.53;;
17670;SDS011;8954;48.694;8.940;2022-10-16T03:15:17;312.27;;;94.00;;
17670;SDS011;8954;48.694;8.940;2022-10-16T03:17:42;310.07;;;92.97;;
17670;SDS011;8954;48.694;8.940;2022-10-16T03:20:08;309.43;;;91.73;;
17670;SDS011;8954;48.694;8.940;2022-10-16T03:22:34;313.43;;;95.17;;
17670;SDS011;8954;48.694;8.940;2022-10-16T03:25:00;308.10;;;92.43;;
17670;SDS011;8954;48.694;8.940;2022-10-16T03:27:26;314.87;;;97.07;;
17670;SDS011;8954;48.694;8.940;2022-10-16T03:29:51;310.67;;;94.30;;
17670;SDS011;8954;48.694;8.940;2022-10-16T03:32:17;313.10;;;95.17;;
17670;SDS011;8954;48.694;8.940;2022-10-16T03:34:43;312.97;;;95.53;;
17670;SDS011;8954;48.694;8.940;2022-10-16T03:37:09;310.23;;;92.93;;
17670;SDS011;8954;48.694;8.940;2022-10-16T03:39:34;312.93;;;95.37;;
17670;SDS011;8954;48.694;8.940;2022-10-16T03:42:00;313.63;;;98.03;;
17670;SDS011;8954;48.694;8.940;2022-10-16T03:44:26;312.23;;;96.20;;
17670;SDS011;8954;48.694;8.940;2022-10-16T03:46:51;311.57;;;95.00;;
17670;SDS011;8954;48.694;8.940;2022-10-16T03:49:17;310.40;;;93.73;;
17670;SDS011;8954;48.694;8.940;2022-10-16T03:51:42;309.53;;;92.90;;
17670;SDS011;8954;48.694;8.940;2022-10-16T03:54:09;312.63;;;94.60;;
17670;SDS011;8954;48.694;8.940;2022-10-16T03:56:35;308.03;;;90.83;;
17670;SDS011;8954;48.694;8.940;2022-10-16T03:59:01;309.97;;;90.83;;
17670;SDS011;8954;48.694;8.940;2022-10-16T04:01:26;310.00;;;92.33;;
17670;SDS011;8954;48.694;8.940;2022-10-16T04:03:52;310.87;;;92.57;;
17670;SDS011;8954;48.694;8.940;2022-10-16T04:06:18;310.33;;;92.53;;
17670;SDS011;8954;48.694;8.940;2022-10-16T04:08:43;309.10;;;91.63;;
17670;SDS011;8954;48.694;8.940;2022-10-16T04:11:09;310.27;;;93.27;;
17670;SDS011;8954;48.694;8.940;2022-10-16T04:13:36;312.17;;;95.00;;
17670;SDS011;8954;48.694;8.940;2022-10-16T04:16:01;309.43;;;91.73;;
17670;SDS011;8954;48.694;8.940;2022-10-16T04:18:27;310.53;;;92.97;;
17670;SDS011;8954;48.694;8.940;2022-10-16T04:20:54;310.93;;;93.83;;
17670;SDS011;8954;48.694;8.940;2022-10-16T04:23:20;311.93;;;93.70;;
17670;SDS011;8954;48.694;8.940;2022-10-16T04:25:45;311.23;;;93.77;;
17670;SDS011;8954;48.694;8.940;2022-10-16T04:28:11;313.33;;;95.53;;
17670;SDS011;8954;48.694;8.940;2022-10-16T04:30:38;309.90;;;92.93;;
17670;SDS011;8954;48.694;8.940;2022-10-16T04:33:04;311.20;;;93.03;;
17670;SDS011;8954;48.694;8.940;2022-10-16T04:35:30;310.23;;;92.20;;
17670;SDS011;8954;48.694;8.940;2022-10-16T04:37:57;309.83;;;92.00;;
17670;SDS011;8954;48.694;8.940;2022-10-16T04:40:23;311.63;;;94.17;;
17670;SDS011;8954;48.694;8.940;2022-10-16T04:42:49;309.10;;;93.10;;
17670;SDS011;8954;48.694;8.940;2022-10-16T04:45:15;312.80;;;94.37;;
17670;SDS011;8954;48.694;8.940;2022-10-16T04:47:40;309.03;;;91.77;;
17670;SDS011;8954;48.694;8.940;2022-10-16T04:50:09;315.47;;;98.70;;
17670;SDS011;8954;48.694;8.940;2022-10-16T04:52:34;308.73;;;91.13;;
17670;SDS011;8954;48.694;8.940;2022-10-16T04:55:00;308.20;;;92.57;;
17670;SDS011;8954;48.694;8.940;2022-10-16T04:57:28;311.73;;;93.03;;
17670;SDS011;8954;48.694;8.940;2022-10-16T04:59:54;310.97;;;91.70;;
17670;SDS011;8954;48.694;8.940;2022-10-16T05:02:20;310.77;;;92.07;;
17670;SDS011;8954;48.694;8.940;2022-10-16T05:04:46;306.87;;;90.70;;
17670;SDS011;8954;48.694;8.940;2022-10-16T05:07:11;310.07;;;92.07;;
17670;SDS011;8954;48.694;8.940;2022-10-16T05:09:37;310.77;;;92.17;;
17670;SDS011;8954;48.694;8.940;2022-10-16T05:12:02;310.00;;;92.07;;
17670;SDS011;8954;48.694;8.940;2022-10-16T05:14:28;310.80;;;92.60;;
17670;SDS011;8954;48.694;8.940;2022-10-16T05:16:54;309.07;;;91.30;;
17670;SDS011;8954;48.694;8.940;2022-10-16T05:19:20;309.17;;;90.90;;
17670;SDS011;8954;48.694;8.940;2022-10-16T05:21:46;312.47;;;95.17;;
17670;SDS011;8954;48.694;8.940;2022-10-16T05:24:11;311.10;;;93.77;;
17670;SDS011;8954;48.694;8.940;2022-10-16T05:26:37;312.63;;;93.87;;
17670;SDS011;8954;48.694;8.940;2022-10-16T05:29:03;313.60;;;95.80;;
17670;SDS011;8954;48.694;8.940;2022-10-16T05:31:28;308.73;;;91.80;;
17670;SDS011;8954;48.694;8.940;2022-10-16T05:34:00;311.27;;;93.07;;
17670;SDS011;8954;48.694;8.940;2022-10-16T05:36:26;311.70;;;93.50;;
17670;SDS011;8954;48.694;8.940;2022-10-16T05:38:52;310.00;;;90.07;;
17670;SDS011;8954;48.694;8.940;2022-10-16T05:41:17;310.47;;;91.63;;
17670;SDS011;8954;48.694;8.940;2022-10-16T05:43:46;308.80;;;88.93;;
17670;SDS011;8954;48.694;8.940;2022-10-16T05:46:13;309.77;;;90.23;;
17670;SDS011;8954;48.694;8.940;2022-10-16T05:48:39;312.10;;;92.50;;
17670;SDS011;8954;48.694;8.940;2022-10-16T05:51:06;309.93;;;90.90;;
17670;SDS011;8954;48.694;8.940;2022-10-16T05:53:33;306.73;;;87.40;;
17670;SDS011;8954;48.694;8.940;2022-10-16T05:56:00;311.03;;;90.53;;
17670;SDS011;8954;48.694;8.940;2022-10-16T05:58:30;309.77;;;89.93;;
17670;SDS011;8954;48.694;8.940;2022-10-16T06:00:59;310.50;;;90.97;;
17670;SDS011;8954;48.694;8.940;2022-10-16T06:03:27;311.83;;;92.27;;
17670;SDS011;8954;48.694;8.940;2022-10-16T06:05:53;312.60;;;94.53;;
17670;SDS011;8954;48.694;8.940;2022-10-16T06:08:19;310.03;;;93.57;;
17670;SDS011;8954;48.694;8.940;2022-10-16T06:10:47;312.03;;;95.67;;
17670;SDS011;8954;48.694;8.940;2022-10-16T06:13:14;313.90;;;96.57;;
17670;SDS011;8954;48.694;8.940;2022-10-16T06:15:41;312.20;;;94.37;;
17670;SDS011;8954;48.694;8.940;2022-10-16T06:18:10;313.40;;;96.77;;
17670;SDS011;8954;48.694;8.940;2022-10-16T06:20:36;309.73;;;93.60;;
17670;SDS011;8954;48.694;8.940;2022-10-16T06:23:02;313.60;;;97.23;;
17670;SDS011;8954;48.694;8.940;2022-10-16T06:25:29;313.80;;;96.83;;
17670;SDS011;8954;48.694;8.940;2022-10-16T06:27:58;313.57;;;97.03;;
17670;SDS011;8954;48.694;8.940;2022-10-16T06:30:24;320.57;;;101.63;;
17670;SDS011;8954;48.694;8.940;2022-10-16T06:32:50;312.13;;;97.80;;
17670;SDS011;8954;48.694;8.940;2022-10-16T06:35:16;312.00;;;95.20;;
17670;SDS011;8954;48.694;8.940;2022-10-16T06:37:41;311.07;;;95.27;;
17670;SDS011;8954;48.694;8.940;2022-10-16T06:40:07;313.20;;;98.50;;
17670;SDS011;8954;48.694;8.940;2022-10-16T06:42:33;315.50;;;101.77;;
17670;SDS011;8954;48.694;8.940;2022-10-16T06:44:59;316.57;;;102.60;;
17670;SDS011;8954;48.694;8.940;2022-10-16T06:47:24;316.80;;;102.77;;
17670;SDS011;8954;48.694;8.940;2022-10-16T06:49:50;316.23;;;105.03;;
17670;SDS011;8954;48.694;8.940;2022-10-16T06:52:16;318.73;;;105.83;;
17670;SDS011;8954;48.694;8.940;2022-10-16T06:54:41;318.80;;;106.73;;
17670;SDS011;8954;48.694;8.940;2022-10-16T06:57:07;316.97;;;104.63;;
17670;SDS011;8954;48.694;8.940;2022-10-16T06:59:33;314.97;;;103.83;;
17670;SDS011;8954;48.694;8.940;2022-10-16T07:01:58;317.00;;;105.93;;
17670;SDS011;8954;48.694;8.940;2022-10-16T07:04:24;318.43;;;107.67;;
17670;SDS011;8954;48.694;8.940;2022-10-16T07:06:50;324.07;;;110.37;;
17670;SDS011;8954;48.694;8.940;2022-10-16T07:09:16;318.77;;;107.20;;
17670;SDS011;8954;48.694;8.940;2022-10-16T07:11:42;319.67;;;107.77;;
17670;SDS011;8954;48.694;8.940;2022-10-16T07:14:18;317.83;;;106.40;;
17670;SDS011;8954;48.694;8.940;2022-10-16T07:16:45;320.17;;;110.00;;
17670;SDS011;8954;48.694;8.940;2022-10-16T07:19:11;320.90;;;109.80;;
17670;SDS011;8954;48.694;8.940;2022-10-16T07:21:39;321.57;;;110.67;;
17670;SDS011;8954;48.694;8.940;2022-10-16T07:24:06;318.57;;;110.23;;
17670;SDS011;8954;48.694;8.940;2022-10-16T07:26:36;318.10;;;108.97;;
17670;SDS011;8954;48.694;8.940;2022-10-16T07:29:04;317.73;;;108.20;;
17670;SDS011;8954;48.694;8.940;2022-10-16T07:31:40;317.03;;;107.73;;
17670;SDS011;8954;48.694;8.940;2022-10-16T07:34:06;318.70;;;108.43;;
17670;SDS011;8954;48.694;8.940;2022-10-16T07:36:32;318.33;;;109.43;;
17670;SDS011;8954;48.694;8.940;2022-10-16T07:38:58;318.23;;;108.30;;
17670;SDS011;8954;48.694;8.940;2022-10-16T07:41:24;316.07;;;108.63;;
17670;SDS011;8954;48.694;8.940;2022-10-16T07:43:51;317.60;;;105.63;;
17670;SDS011;8954;48.694;8.940;2022-10-16T07:46:18;315.43;;;105.80;;
17670;SDS011;8954;48.694;8.940;2022-10-16T07:48:45;317.47;;;108.30;;
17670;SDS011;8954;48.694;8.940;2022-10-16T07:51:12;317.60;;;106.80;;
17670;SDS011;8954;48.694;8.940;2022-10-16T07:53:42;315.40;;;105.40;;
17670;SDS011;8954;48.694;8.940;2022-10-16T07:56:08;318.57;;;108.87;;
17670;SDS011;8954;48.694;8.940;2022-10-16T07:58:34;315.10;;;106.43;;
17670;SDS011;8954;48.694;8.940;2022-10-16T08:01:05;316.37;;;107.63;;
17670;SDS011;8954;48.694;8.940;2022-10-16T08:03:33;314.57;;;105.33;;
17670;SDS011;8954;48.694;8.940;2022-10-16T08:05:59;317.87;;;111.90;;
17670;SDS011;8954;48.694;8.940;2022-10-16T08:08:25;319.13;;;112.63;;
17670;SDS011;8954;48.694;8.940;2022-10-16T08:10:52;318.47;;;112.13;;
17670;SDS011;8954;48.694;8.940;2022-10-16T08:13:18;319.93;;;112.60;;
17670;SDS011;8954;48.694;8.940;2022-10-16T08:15:43;323.60;;;117.87;;
17670;SDS011;8954;48.694;8.940;2022-10-16T08:18:12;322.60;;;115.47;;
17670;SDS011;8954;48.694;8.940;2022-10-16T08:20:39;325.23;;;119.03;;
17670;SDS011;8954;48.694;8.940;2022-10-16T08:23:06;329.43;;;128.40;;
17670;SDS011;8954;48.694;8.940;2022-10-16T08:25:34;329.70;;;131.53;;
17670;SDS011;8954;48.694;8.940;2022-10-16T08:28:03;330.63;;;135.33;;
17670;SDS011;8954;48.694;8.940;2022-10-16T08:30:31;334.30;;;139.13;;
17670;SDS011;8954;48.694;8.940;2022-10-16T08:32:57;332.17;;;137.90;;
17670;SDS011;8954;48.694;8.940;2022-10-16T08:35:23;329.23;;;132.23;;
17670;SDS011;8954;48.694;8.940;2022-10-16T08:37:49;329.67;;;134.47;;
17670;SDS011;8954;48.694;8.940;2022-10-16T08:40:19;332.57;;;138.17;;
17670;SDS011;8954;48.694;8.940;2022-10-16T08:42:53;327.37;;;129.43;;
17670;SDS011;8954;48.694;8.940;2022-10-16T08:51:22;327.47;;;129.50;;
17670;SDS011;8954;48.694;8.940;2022-10-16T08:53:56;327.77;;;129.47;;
17670;SDS011;8954;48.694;8.940;2022-10-16T08:56:24;328.00;;;127.53;;
17670;SDS011;8954;48.694;8.940;2022-10-16T08:58:51;328.17;;;130.90;;
17670;SDS011;8954;48.694;8.940;2022-10-16T09:01:19;331.67;;;136.13;;
17670;SDS011;8954;48.694;8.940;2022-10-16T09:20:32;371.77;;;316.77;;
17670;SDS011;8954;48.694;8.940;2022-10-16T09:22:38;402.77;;;360.73;;
17670;SDS011;8954;48.694;8.940;2022-10-16T09:25:14;414.75;;;372.58;;
17670;SDS011;8954;48.694;8.940;2022-10-16T09:27:42;411.90;;;369.70;;
17670;SDS011;8954;48.694;8.940;2022-10-16T09:30:21;381.70;;;340.10;;
17670;SDS011;8954;48.694;8.940;2022-10-16T09:32:49;369.10;;;315.95;;
17670;SDS011;8954;48.694;8.940;2022-10-16T09:35:21;363.92;;;291.25;;
17670;SDS011;8954;48.694;8.940;2022-10-16T09:37:52;359.90;;;264.40;;
17670;SDS011;8954;48.694;8.940;2022-10-16T09:40:26;0.10;;;0.00;;
17670;SDS011;8954;48.694;8.940;2022-10-16T09:43:00;0.00;;;0.00;;
17670;SDS011;8954;48.694;8.940;2022-10-16T09:45:31;0.00;;;0.00;;
17670;SDS011;8954;48.694;8.940;2022-10-16T09:47:58;0.00;;;0.00;;
17670;SDS011;8954;48.694;8.940;2022-10-16T09:50:34;0.00;;;0.00;;
17670;SDS011;8954;48.694;8.940;2022-10-16T09:53:04;0.00;;;0.00;;
17670;SDS011;8954;48.694;8.940;2022-10-16T09:55:49;0.00;;;0.00;;
17670;SDS011;8954;48.694;8.940;2022-10-16T09:58:17;0.00;;;0.00;;
17670;SDS011;8954;48.694;8.940;2022-10-16T10:00:53;0.00;;;0.00;;
17670;SDS011;8954;48.694;8.940;2022-10-16T10:06:07;0.00;;;0.00;;
17670;SDS011;8954;48.694;8.940;2022-10-16T10:14:22;0.00;;;0.00;;
17670;SDS011;8954;48.694;8.940;2022-10-16T10:17:16;0.00;;;0.00;;
17670;SDS011;8954;48.694;8.940;2022-10-16T10:19:53;0.00;;;0.00;;
17670;SDS011;8954;48.694;8.940;2022-10-16T10:22:43;0.00;;;0.00;;
17670;SDS011;8954;48.694;8.940;2022-10-16T10:36:12;373.20;;;326.13;;
17670;SDS011;8954;48.694;8.940;2022-10-16T10:49:33;373.80;;;322.52;;
17670;SDS011;8954;48.694;8.940;2022-10-16T10:55:20;421.38;;;378.42;;
17670;SDS011;8954;48.694;8.940;2022-10-16T11:06:18;472.73;;;428.85;;
17670;SDS011;8954;48.694;8.940;2022-10-16T11:09:11;454.90;;;411.73;;
17670;SDS011;8954;48.694;8.940;2022-10-16T11:11:48;449.08;;;405.98;;
17670;SDS011;8954;48.694;8.940;2022-10-16T11:14:20;452.80;;;409.42;;
17670;SDS011;8954;48.694;8.940;2022-10-16T11:19:54;419.77;;;377.13;;
17670;SDS011;8954;48.694;8.940;2022-10-16T11:25:16;415.10;;;372.63;;
17670;SDS011;8954;48.694;8.940;2022-10-16T11:27:57;418.52;;;375.85;;
17670;SDS011;8954;48.694;8.940;2022-10-16T11:30:47;427.95;;;385.17;;
17670;SDS011;8954;48.694;8.940;2022-10-16T11:35:44;478.95;;;434.77;;
17670;SDS011;8954;48.694;8.940;2022-10-16T11:38:39;496.52;;;452.25;;
17670;SDS011;8954;48.694;8.940;2022-10-16T11:41:27;516.15;;;471.58;;
17670;SDS011;8954;48.694;8.940;2022-10-16T11:49:37;578.25;;;532.38;;
17670;SDS011;8954;48.694;8.940;2022-10-16T11:54:50;613.95;;;567.28;;
17670;SDS011;8954;48.694;8.940;2022-10-16T11:57:23;627.70;;;580.92;;
17670;SDS011;8954;48.694;8.940;2022-10-16T11:59:54;631.97;;;585.17;;
17670;SDS011;8954;48.694;8.940;2022-10-16T12:02:35;635.10;;;588.28;;
17670;SDS011;8954;48.694;8.940;2022-10-16T12:07:39;641.20;;;594.55;;
17670;SDS011;8954;48.694;8.940;2022-10-16T12:10:24;643.47;;;596.58;;
17670;SDS011;8954;48.694;8.940;2022-10-16T12:12:53;639.78;;;592.88;;
17670;SDS011;8954;48.694;8.940;2022-10-16T12:15:23;615.83;;;569.65;;
17670;SDS011;8954;48.694;8.940;2022-10-16T12:17:50;623.13;;;576.63;;
17670;SDS011;8954;48.694;8.940;2022-10-16T12:22:53;609.67;;;563.47;;
17670;SDS011;8954;48.694;8.940;2022-10-16T12:25:25;599.47;;;553.60;;
17670;SDS011;8954;48.694;8.940;2022-10-16T12:28:07;593.22;;;547.42;;
17670;SDS011;8954;48.694;8.940;2022-10-16T12:30:54;583.15;;;537.40;;
17670;SDS011;8954;48.694;8.940;2022-10-16T12:33:27;581.33;;;535.83;;
17670;SDS011;8954;48.694;8.940;2022-10-16T12:35:55;586.00;;;540.05;;
17670;SDS011;8954;48.694;8.940;2022-10-16T12:38:26;579.40;;;533.70;;
17670;SDS011;8954;48.694;8.940;2022-10-16T12:40:59;567.47;;;521.88;;
17670;SDS011;8954;48.694;8.940;2022-10-16T12:43:40;541.33;;;496.33;;
17670;SDS011;8954;48.694;8.940;2022-10-16T12:48:33;490.58;;;446.50;;
17670;SDS011;8954;48.694;8.940;2022-10-16T13:07:44;383.23;;;341.50;;
17670;SDS011;8954;48.694;8.940;2022-10-16T13:13:02;371.35;;;325.55;;
17670;SDS011;8954;48.694;8.940;2022-10-16T13:26:19;376.50;;;334.98;;
17670;SDS011;8954;48.694;8.940;2022-10-16T13:28:51;371.13;;;324.00;;
17670;SDS011;8954;48.694;8.940;2022-10-16T13:31:21;368.08;;;322.33;;
17670;SDS011;8954;48.694;8.940;2022-10-16T13:33:52;373.42;;;332.33;;
17670;SDS011;8954;48.694;8.940;2022-10-16T13:36:28;373.27;;;331.08;;
17670;SDS011;8954;48.694;8.940;2022-10-16T13:42:52;369.27;;;313.90;;
17670;SDS011;8954;48.694;8.940;2022-10-16T13:44:52;370.98;;;311.08;;
17670;SDS011;8954;48.694;8.940;2022-10-16T13:47:23;373.83;;;317.15;;
17670;SDS011;8954;48.694;8.940;2022-10-16T13:50:04;370.13;;;308.60;;
17670;SDS011;8954;48.694;8.940;2022-10-16T13:52:37;362.83;;;290.48;;
17670;SDS011;8954;48.694;8.940;2022-10-16T13:55:04;371.30;;;301.08;;
17670;SDS011;8954;48.694;8.940;2022-10-16T13:57:40;366.73;;;292.67;;
17670;SDS011;8954;48.694;8.940;2022-10-16T14:02:49;363.25;;;281.40;;
17670;SDS011;8954;48.694;8.940;2022-10-16T14:05:49;364.52;;;277.65;;
17670;SDS011;8954;48.694;8.940;2022-10-16T14:08:17;362.75;;;277.13;;
17670;SDS011;8954;48.694;8.940;2022-10-16T14:10:47;364.40;;;282.08;;
17670;SDS011;8954;48.694;8.940;2022-10-16T14:13:16;360.60;;;272.98;;
17670;SDS011;8954;48.694;8.940;2022-10-16T14:15:46;363.55;;;272.45;;
17670;SDS011;8954;48.694;8.940;2022-10-16T14:18:18;360.30;;;270.90;;
17670;SDS011;8954;48.694;8.940;2022-10-16T14:20:49;361.88;;;269.30;;
17670;SDS011;8954;48.694;8.940;2022-10-16T14:25:53;360.58;;;268.45;;
17670;SDS011;8954;48.694;8.940;2022-10-16T14:28:30;358.83;;;268.85;;
17670;SDS011;8954;48.694;8.940;2022-10-16T14:33:24;360.85;;;266.95;;
17670;SDS011;8954;48.694;8.940;2022-10-16T14:36:01;359.73;;;266.92;;
17670;SDS011;8954;48.694;8.940;2022-10-16T14:38:39;359.23;;;259.37;;
17670;SDS011;8954;48.694;8.940;2022-10-16T14:41:06;360.77;;;263.33;;
17670;SDS011;8954;48.694;8.940;2022-10-16T14:43:36;359.40;;;257.45;;
17670;SDS011;8954;48.694;8.940;2022-10-16T14:46:17;358.85;;;256.77;;
17670;SDS011;8954;48.694;8.940;2022-10-16T14:48:46;358.63;;;252.93;;
17670;SDS011;8954;48.694;8.940;2022-10-16T14:51:15;360.47;;;252.37;;
17670;SDS011;8954;48.694;8.940;2022-10-16T14:53:45;358.87;;;250.07;;
17670;SDS011;8954;48.694;8.940;2022-10-16T14:56:15;359.63;;;245.43;;
17670;SDS011;8954;48.694;8.940;2022-10-16T14:58:49;358.20;;;247.60;;
17670;SDS011;8954;48.694;8.940;2022-10-16T15:01:16;358.47;;;236.90;;
17670;SDS011;8954;48.694;8.940;2022-10-16T15:03:43;354.90;;;230.47;;
17670;SDS011;8954;48.694;8.940;2022-10-16T15:06:12;354.03;;;226.33;;
17670;SDS011;8954;48.694;8.940;2022-10-16T15:08:38;351.27;;;220.37;;
17670;SDS011;8954;48.694;8.940;2022-10-16T15:11:04;354.17;;;219.57;;
17670;SDS011;8954;48.694;8.940;2022-10-16T15:13:31;352.77;;;217.13;;
17670;SDS011;8954;48.694;8.940;2022-10-16T15:15:57;354.37;;;213.73;;
17670;SDS011;8954;48.694;8.940;2022-10-16T15:18:23;353.60;;;210.60;;
17670;SDS011;8954;48.694;8.940;2022-10-16T15:20:50;353.47;;;207.50;;
17670;SDS011;8954;48.694;8.940;2022-10-16T15:23:20;353.07;;;208.83;;
17670;SDS011;8954;48.694;8.940;2022-10-16T15:25:48;350.73;;;202.20;;
17670;SDS011;8954;48.694;8.940;2022-10-16T15:28:15;352.43;;;205.33;;
17670;SDS011;8954;48.694;8.940;2022-10-16T15:30:42;351.23;;;198.37;;
17670;SDS011;8954;48.694;8.940;2022-10-16T15:33:14;349.40;;;192.13;;
17670;SDS011;8954;48.694;8.940;2022-10-16T15:35:40;350.73;;;194.03;;
17670;SDS011;8954;48.694;8.940;2022-10-16T15:38:09;351.47;;;193.30;;
17670;SDS011;8954;48.694;8.940;2022-10-16T15:40:38;347.43;;;184.47;;
17670;SDS011;8954;48.694;8.940;2022-10-16T15:43:05;349.10;;;187.77;;
17670;SDS011;8954;48.694;8.940;2022-10-16T15:45:31;351.57;;;185.53;;
17670;SDS011;8954;48.694;8.940;2022-10-16T15:47:57;349.50;;;180.80;;
17670;SDS011;8954;48.694;8.940;2022-10-16T15:50:24;349.80;;;178.20;;
17670;SDS011;8954;48.694;8.940;2022-10-16T15:52:50;344.50;;;169.50;;
17670;SDS011;8954;48.694;8.940;2022-10-16T15:55:17;347.97;;;172.00;;
17670;SDS011;8954;48.694;8.940;2022-10-16T15:57:43;344.57;;;169.00;;
17670;SDS011;8954;48.694;8.940;2022-10-16T16:00:11;345.53;;;167.70;;
17670;SDS011;8954;48.694;8.940;2022-10-16T16:02:39;343.63;;;165.13;;
17670;SDS011;8954;48.694;8.940;2022-10-16T16:05:06;343.20;;;163.90;;
17670;SDS011;8954;48.694;8.940;2022-10-16T16:07:33;341.63;;;160.77;;
17670;SDS011;8954;48.694;8.940;2022-10-16T16:10:00;341.17;;;160.23;;
17670;SDS011;8954;48.694;8.940;2022-10-16T16:12:26;338.57;;;155.13;;
17670;SDS011;8954;48.694;8.940;2022-10-16T16:14:52;342.03;;;159.53;;
17670;SDS011;8954;48.694;8.940;2022-10-16T16:17:18;340.03;;;153.90;;
17670;SDS011;8954;48.694;8.940;2022-10-16T16:19:45;341.53;;;154.57;;
17670;SDS011;8954;48.694;8.940;2022-10-16T16:22:12;341.07;;;153.80;;
17670;SDS011;8954;48.694;8.940;2022-10-16T16:24:38;338.27;;;150.80;;
17670;SDS011;8954;48.694;8.940;2022-10-16T16:27:04;337.20;;;150.07;;
17670;SDS011;8954;48.694;8.940;2022-10-16T16:29:30;340.57;;;151.83;;
17670;SDS011;8954;48.694;8.940;2022-10-16T16:31:57;340.50;;;149.77;;
17670;SDS011;8954;48.694;8.940;2022-10-16T16:34:24;338.10;;;145.77;;
17670;SDS011;8954;48.694;8.940;2022-10-16T16:36:51;339.73;;;145.90;;
17670;SDS011;8954;48.694;8.940;2022-10-16T16:39:17;336.27;;;141.37;;
17670;SDS011;8954;48.694;8.940;2022-10-16T16:41:44;339.00;;;144.03;;
17670;SDS011;8954;48.694;8.940;2022-10-16T16:44:13;335.07;;;139.20;;